createdAt,value
2019-06-27T00:00:12.407Z,24.71
2019-06-27T00:00:52.813Z,24.67
2019-06-27T00:01:33.335Z,24.64
2019-06-27T00:02:13.748Z,24.68
2019-06-27T00:02:54.235Z,24.64
2019-06-27T00:03:34.706Z,24.61
2019-06-27T00:04:15.249Z,24.67
2019-06-27T00:04:55.680Z,24.66
2019-06-27T00:05:36.185Z,24.6
2019-06-27T00:06:16.651Z,24.6
2019-06-27T00:06:57.135Z,24.61
2019-06-27T00:07:37.629Z,24.53
2019-06-27T00:08:18.130Z,24.56
2019-06-27T00:08:58.624Z,24.56
2019-06-27T00:09:39.116Z,24.53
2019-06-27T00:10:19.609Z,24.45
2019-06-27T00:11:00.115Z,24.41
2019-06-27T00:11:40.608Z,24.44
2019-06-27T00:12:21.114Z,24.41
2019-06-27T00:13:01.686Z,24.44
2019-06-27T00:13:42.150Z,24.42
2019-06-27T00:14:22.649Z,24.36
2019-06-27T00:15:03.138Z,24.37
2019-06-27T00:15:43.638Z,24.42
2019-06-27T00:16:24.115Z,24.41
2019-06-27T00:17:04.622Z,24.36
2019-06-27T00:17:45.080Z,24.36
2019-06-27T00:18:26.526Z,24.24
2019-06-27T00:19:06.991Z,24.26
2019-06-27T00:19:47.515Z,24.3
2019-06-27T00:20:27.981Z,24.3
2019-06-27T00:21:08.438Z,24.23
2019-06-27T00:21:48.929Z,24.21
2019-06-27T00:22:29.418Z,24.18
2019-06-27T00:23:09.907Z,24.15
2019-06-27T00:23:50.437Z,24.19
2019-06-27T00:24:30.905Z,24.19
2019-06-27T00:25:11.327Z,24.16
2019-06-27T00:25:51.799Z,24.23
2019-06-27T00:26:32.286Z,24.14
2019-06-27T00:27:12.716Z,24.27
2019-06-27T00:27:53.195Z,24.19
2019-06-27T00:30:05.896Z,24.19
2019-06-27T00:30:50.152Z,24.12
2019-06-27T00:31:30.634Z,24.08
2019-06-27T00:32:11.176Z,23.97
2019-06-27T00:32:51.765Z,23.94
2019-06-27T00:33:32.238Z,23.81
2019-06-27T00:34:12.800Z,23.86
2019-06-27T00:34:53.235Z,23.78
2019-06-27T00:35:33.679Z,23.79
2019-06-27T00:36:14.146Z,23.78
2019-06-27T00:36:54.621Z,23.64
2019-06-27T00:37:35.167Z,23.68
2019-06-27T00:38:15.623Z,23.64
2019-06-27T00:38:56.092Z,23.67
2019-06-27T00:39:36.580Z,23.6
2019-06-27T00:40:17.052Z,23.59
2019-06-27T00:40:59.057Z,23.64
2019-06-27T00:41:39.512Z,23.63
2019-06-27T00:42:20.009Z,23.69
2019-06-27T00:43:00.503Z,23.6
2019-06-27T00:43:41.038Z,23.57
2019-06-27T00:44:21.553Z,23.42
2019-06-27T00:45:01.990Z,23.6
2019-06-27T00:45:42.474Z,23.5
2019-06-27T00:46:22.964Z,23.59
2019-06-27T00:47:03.457Z,23.45
2019-06-27T00:47:43.969Z,23.38
2019-06-27T00:48:24.387Z,23.44
2019-06-27T00:49:06.742Z,23.38
2019-06-27T00:49:47.221Z,23.34
2019-06-27T00:50:27.697Z,23.25
2019-06-27T00:51:08.126Z,23.19
2019-06-27T00:51:48.588Z,23.16
2019-06-27T00:52:29.093Z,23.14
2019-06-27T00:53:09.516Z,23.09
2019-06-27T00:53:50.315Z,23.11
2019-06-27T00:54:30.763Z,23.15
2019-06-27T00:55:11.207Z,23.07
2019-06-27T00:55:51.664Z,23.14
2019-06-27T00:56:32.192Z,23.14
2019-06-27T00:57:14.226Z,23.09
2019-06-27T00:57:53.117Z,23
2019-06-27T00:58:33.580Z,23.06
2019-06-27T00:59:14.044Z,23.01
2019-06-27T00:59:54.517Z,22.89
2019-06-27T01:00:34.991Z,22.94
2019-06-27T01:01:15.427Z,22.89
2019-06-27T01:01:55.912Z,22.91
2019-06-27T01:02:38.066Z,22.93
2019-06-27T01:03:18.568Z,22.97
2019-06-27T01:03:59.402Z,22.97
2019-06-27T01:04:39.874Z,22.96
2019-06-27T01:05:20.372Z,22.93
2019-06-27T01:06:00.864Z,22.88
2019-06-27T01:06:41.326Z,22.97
2019-06-27T01:07:23.663Z,23
2019-06-27T01:08:06.060Z,23.07
2019-06-27T01:08:46.471Z,23.06
2019-06-27T01:09:26.966Z,23.09
2019-06-27T01:10:07.449Z,23.07
2019-06-27T01:10:47.935Z,23.03
2019-06-27T01:11:28.456Z,22.97
2019-06-27T01:12:08.968Z,22.96
2019-06-27T01:12:49.590Z,22.96
2019-06-27T01:13:30.055Z,22.88
2019-06-27T01:14:10.616Z,22.81
2019-06-27T01:14:51.034Z,22.78
2019-06-27T01:15:31.479Z,22.76
2019-06-27T01:16:11.960Z,22.66
2019-06-27T01:16:52.534Z,22.66
2019-06-27T01:17:33.013Z,22.66
2019-06-27T01:18:15.281Z,22.61
2019-06-27T01:18:55.773Z,22.64
2019-06-27T01:19:36.297Z,22.61
2019-06-27T01:20:16.754Z,22.61
2019-06-27T01:20:57.195Z,22.57
2019-06-27T01:21:37.649Z,22.6
2019-06-27T01:22:18.125Z,22.56
2019-06-27T01:22:58.612Z,22.52
2019-06-27T01:23:39.418Z,22.56
2019-06-27T01:24:19.871Z,22.54
2019-06-27T01:25:00.467Z,22.51
2019-06-27T01:25:40.882Z,22.56
2019-06-27T01:26:21.366Z,22.59
2019-06-27T01:27:01.894Z,22.51
2019-06-27T01:27:42.273Z,22.56
2019-06-27T01:28:22.767Z,22.56
2019-06-27T01:29:03.314Z,22.56
2019-06-27T01:29:43.865Z,22.56
2019-06-27T01:30:26.047Z,22.56
2019-06-27T01:31:06.526Z,22.51
2019-06-27T01:31:48.931Z,22.52
2019-06-27T01:32:29.453Z,22.57
2019-06-27T01:33:09.930Z,22.54
2019-06-27T01:33:50.441Z,22.41
2019-06-27T01:34:30.896Z,22.39
2019-06-27T01:35:11.361Z,22.41
2019-06-27T01:35:51.828Z,22.3
2019-06-27T01:36:32.316Z,22.41
2019-06-27T01:37:12.824Z,22.33
2019-06-27T01:37:53.270Z,22.33
2019-06-27T01:38:33.742Z,22.39
2019-06-27T01:39:14.222Z,22.36
2019-06-27T01:39:54.713Z,22.21
2019-06-27T01:40:35.199Z,22.27
2019-06-27T01:41:17.717Z,22.19
2019-06-27T01:41:58.220Z,22.17
2019-06-27T01:42:38.724Z,22.2
2019-06-27T01:43:19.218Z,22.23
2019-06-27T01:44:00.449Z,22.23
2019-06-27T01:44:41.063Z,22.06
2019-06-27T01:45:21.567Z,22.11
2019-06-27T01:46:02.039Z,22.17
2019-06-27T01:46:42.519Z,22.14
2019-06-27T01:47:23.016Z,22.24
2019-06-27T01:48:03.520Z,22.24
2019-06-27T01:48:43.987Z,22.21
2019-06-27T01:49:24.466Z,22.21
2019-06-27T01:50:05.073Z,22.23
2019-06-27T01:50:45.555Z,22.24
2019-06-27T01:51:26.039Z,22.3
2019-06-27T01:52:06.556Z,22.14
2019-06-27T01:52:47.034Z,22.23
2019-06-27T01:53:27.520Z,22.09
2019-06-27T01:54:07.982Z,22.05
2019-06-27T01:54:48.544Z,22.21
2019-06-27T01:55:28.956Z,22.11
2019-06-27T01:56:09.445Z,22.12
2019-06-27T01:56:49.921Z,22.09
2019-06-27T01:57:45.464Z,21.98
2019-06-27T01:58:10.898Z,22.06
2019-06-27T01:58:51.380Z,21.99
2019-06-27T01:59:31.975Z,22.02
2019-06-27T02:00:12.466Z,21.99
2019-06-27T02:00:54.449Z,22.06
2019-06-27T02:01:34.937Z,22.02
2019-06-27T02:02:55.912Z,21.94
2019-06-27T02:03:36.364Z,22.01
2019-06-27T02:04:19.329Z,21.99
2019-06-27T02:04:59.685Z,21.96
2019-06-27T02:05:40.170Z,21.89
2019-06-27T02:06:20.692Z,21.85
2019-06-27T02:07:01.156Z,21.82
2019-06-27T02:07:41.693Z,21.81
2019-06-27T02:08:22.219Z,21.75
2019-06-27T02:09:02.804Z,21.79
2019-06-27T02:10:25.344Z,21.61
2019-06-27T02:11:05.809Z,21.61
2019-06-27T02:11:46.273Z,21.7
2019-06-27T02:12:26.756Z,21.68
2019-06-27T02:13:07.302Z,21.68
2019-06-27T02:13:47.761Z,21.77
2019-06-27T02:14:28.288Z,21.7
2019-06-27T02:15:08.746Z,21.7
2019-06-27T02:15:49.296Z,21.68
2019-06-27T02:16:29.750Z,21.7
2019-06-27T02:17:10.353Z,21.56
2019-06-27T02:17:50.844Z,21.68
2019-06-27T02:18:31.325Z,21.66
2019-06-27T02:19:11.826Z,21.64
2019-06-27T02:19:52.265Z,21.68
2019-06-27T02:20:32.753Z,21.7
2019-06-27T02:21:13.226Z,21.71
2019-06-27T02:21:53.730Z,21.66
2019-06-27T02:22:34.125Z,21.63
2019-06-27T02:23:15.958Z,21.74
2019-06-27T02:23:55.090Z,21.79
2019-06-27T02:24:35.557Z,21.79
2019-06-27T02:25:16.040Z,21.79
2019-06-27T02:25:56.575Z,21.64
2019-06-27T02:26:37.065Z,21.64
2019-06-27T02:27:17.533Z,21.7
2019-06-27T02:28:03.560Z,21.66
2019-06-27T02:28:38.498Z,21.66
2019-06-27T02:29:18.982Z,21.53
2019-06-27T02:29:59.457Z,21.63
2019-06-27T02:30:40.017Z,21.55
2019-06-27T02:31:20.449Z,21.61
2019-06-27T02:32:00.956Z,21.63
2019-06-27T02:32:41.442Z,21.59
2019-06-27T02:33:21.924Z,21.59
2019-06-27T02:34:06.491Z,21.53
2019-06-27T02:35:23.353Z,21.46
2019-06-27T02:36:04.068Z,21.45
2019-06-27T02:36:45.887Z,21.37
2019-06-27T02:37:26.358Z,21.36
2019-06-27T02:38:06.827Z,21.38
2019-06-27T02:38:47.326Z,21.31
2019-06-27T02:39:27.815Z,21.3
2019-06-27T02:40:08.295Z,21.19
2019-06-27T02:40:48.762Z,21.26
2019-06-27T02:41:29.265Z,21.26
2019-06-27T02:42:09.728Z,21.26
2019-06-27T02:42:50.246Z,21.3
2019-06-27T02:43:30.713Z,21.21
2019-06-27T02:44:11.165Z,21.16
2019-06-27T02:44:51.646Z,21.15
2019-06-27T02:45:32.101Z,21.18
2019-06-27T02:46:12.590Z,21.15
2019-06-27T02:46:53.064Z,21.16
2019-06-27T02:47:33.531Z,21.05
2019-06-27T02:48:14.001Z,21.05
2019-06-27T02:48:54.558Z,21.11
2019-06-27T02:49:35.042Z,21.15
2019-06-27T02:50:15.531Z,21.16
2019-06-27T02:50:56.006Z,21.26
2019-06-27T02:51:36.499Z,21.16
2019-06-27T02:52:16.988Z,21.27
2019-06-27T02:52:57.451Z,21.27
2019-06-27T02:53:37.938Z,21.21
2019-06-27T02:54:18.476Z,21.19
2019-06-27T02:54:58.905Z,21.18
2019-06-27T02:55:39.373Z,21.26
2019-06-27T02:56:19.859Z,21.21
2019-06-27T02:57:00.343Z,21.24
2019-06-27T02:57:40.830Z,21.3
2019-06-27T02:58:30.398Z,21.26
2019-06-27T02:59:01.789Z,21.3
2019-06-27T02:59:42.306Z,21.27
2019-06-27T03:00:22.744Z,21.28
2019-06-27T03:01:03.271Z,21.3
2019-06-27T03:01:43.714Z,21.26
2019-06-27T03:02:24.196Z,21.34
2019-06-27T03:03:04.700Z,21.36
2019-06-27T03:03:45.197Z,21.31
2019-06-27T03:04:25.780Z,21.38
2019-06-27T03:05:06.261Z,21.31
2019-06-27T03:05:46.721Z,21.26
2019-06-27T03:06:27.195Z,21.3
2019-06-27T03:07:09.532Z,21.19
2019-06-27T03:07:49.952Z,21.19
2019-06-27T03:08:30.447Z,21.24
2019-06-27T03:09:10.875Z,21.18
2019-06-27T03:10:33.693Z,21.12
2019-06-27T03:11:14.158Z,21.08
2019-06-27T03:11:59.414Z,21.08
2019-06-27T03:12:35.160Z,21.06
2019-06-27T03:13:15.592Z,20.98
2019-06-27T03:13:56.128Z,20.88
2019-06-27T03:14:36.625Z,20.94
2019-06-27T03:15:17.091Z,20.88
2019-06-27T03:15:57.573Z,20.9
2019-06-27T03:16:38.071Z,20.91
2019-06-27T03:17:18.560Z,20.85
2019-06-27T03:17:59.053Z,20.82
2019-06-27T03:18:39.569Z,20.88
2019-06-27T03:19:20.066Z,20.9
2019-06-27T03:20:00.546Z,20.87
2019-06-27T03:20:41.025Z,20.83
2019-06-27T03:21:21.496Z,20.85
2019-06-27T03:22:05.732Z,20.83
2019-06-27T03:22:44.142Z,20.73
2019-06-27T03:23:24.547Z,20.75
2019-06-27T03:24:05.195Z,20.73
2019-06-27T03:24:45.679Z,20.64
2019-06-27T03:25:27.998Z,20.75
2019-06-27T03:26:08.463Z,20.79
2019-06-27T03:26:48.920Z,20.79
2019-06-27T03:27:29.422Z,20.79
2019-06-27T03:28:09.854Z,20.76
2019-06-27T03:28:53.407Z,20.78
2019-06-27T03:29:30.817Z,20.69
2019-06-27T03:30:11.284Z,20.79
2019-06-27T03:30:51.780Z,20.76
2019-06-27T03:31:32.243Z,20.64
2019-06-27T03:32:12.728Z,20.75
2019-06-27T03:32:53.328Z,20.76
2019-06-27T03:33:33.823Z,20.72
2019-06-27T03:34:14.355Z,20.63
2019-06-27T03:34:54.836Z,20.66
2019-06-27T03:35:35.328Z,20.72
2019-06-27T03:36:15.920Z,20.69
2019-06-27T03:36:56.299Z,20.66
2019-06-27T03:37:36.816Z,20.64
2019-06-27T03:38:17.314Z,20.64
2019-06-27T03:38:57.761Z,20.68
2019-06-27T03:39:38.382Z,20.63
2019-06-27T03:40:18.893Z,20.48
2019-06-27T03:41:02.921Z,20.58
2019-06-27T03:41:43.392Z,20.51
2019-06-27T03:42:24.882Z,20.57
2019-06-27T03:43:05.359Z,20.57
2019-06-27T03:43:45.883Z,20.5
2019-06-27T03:44:26.319Z,20.63
2019-06-27T03:45:06.794Z,20.56
2019-06-27T03:45:47.222Z,20.46
2019-06-27T03:46:27.669Z,20.53
2019-06-27T03:47:08.185Z,20.51
2019-06-27T03:47:48.682Z,20.5
2019-06-27T03:48:29.178Z,20.54
2019-06-27T03:49:09.646Z,20.51
2019-06-27T03:49:50.134Z,20.44
2019-06-27T03:50:30.712Z,20.42
2019-06-27T03:51:11.097Z,20.37
2019-06-27T03:51:51.594Z,20.37
2019-06-27T03:53:12.589Z,20.3
2019-06-27T03:53:53.027Z,20.33
2019-06-27T03:54:33.509Z,20.4
2019-06-27T03:55:14.062Z,20.31
2019-06-27T03:55:54.537Z,20.42
2019-06-27T03:56:35.028Z,20.44
2019-06-27T03:57:15.465Z,20.4
2019-06-27T03:58:01.392Z,20.44
2019-06-27T03:58:41.802Z,20.51
2019-06-27T03:59:22.258Z,20.53
2019-06-27T04:00:43.401Z,20.44
2019-06-27T04:01:23.817Z,20.38
2019-06-27T04:02:04.290Z,20.4
2019-06-27T04:02:45.000Z,20.3
2019-06-27T04:03:25.679Z,20.34
2019-06-27T04:04:06.159Z,20.37
2019-06-27T04:04:48.245Z,20.42
2019-06-27T04:05:28.714Z,20.46
2019-06-27T04:06:09.229Z,20.53
2019-06-27T04:06:49.717Z,20.41
2019-06-27T04:07:30.202Z,20.41
2019-06-27T04:08:12.605Z,20.41
2019-06-27T04:08:53.033Z,20.4
2019-06-27T04:09:35.341Z,20.26
2019-06-27T04:10:17.470Z,20.33
2019-06-27T04:10:56.220Z,20.27
2019-06-27T04:11:36.693Z,20.41
2019-06-27T04:12:17.177Z,20.27
2019-06-27T04:12:57.794Z,20.31
2019-06-27T04:13:38.263Z,20.46
2019-06-27T04:14:18.742Z,20.44
2019-06-27T04:14:59.271Z,20.46
2019-06-27T04:15:39.735Z,20.6
2019-06-27T04:16:20.489Z,20.68
2019-06-27T04:17:00.981Z,20.68
2019-06-27T04:17:41.526Z,20.79
2019-06-27T04:19:04.197Z,21.01
2019-06-27T04:19:44.635Z,21.03
2019-06-27T04:20:25.145Z,21.18
2019-06-27T04:21:05.625Z,21.24
2019-06-27T04:21:46.102Z,21.27
2019-06-27T04:22:26.615Z,21.37
2019-06-27T04:23:07.191Z,21.38
2019-06-27T04:23:47.641Z,21.43
2019-06-27T04:24:28.130Z,21.51
2019-06-27T04:25:08.624Z,21.53
2019-06-27T04:25:50.844Z,21.55
2019-06-27T04:26:31.324Z,21.56
2019-06-27T04:27:11.819Z,21.63
2019-06-27T04:27:52.299Z,21.61
2019-06-27T05:09:14.001Z,24.53
2019-06-27T05:09:54.647Z,24.49
2019-06-27T05:10:35.642Z,24.49
2019-06-27T05:11:16.127Z,24.44
2019-06-27T05:11:56.616Z,24.53
2019-06-27T05:12:37.073Z,24.66
2019-06-27T05:13:17.557Z,24.74
2019-06-27T05:13:58.020Z,24.82
2019-06-27T05:14:38.483Z,24.97
2019-06-27T05:15:18.971Z,24.94
2019-06-27T05:15:59.419Z,24.98
2019-06-27T05:16:39.929Z,25.01
2019-06-27T05:17:20.578Z,25.07
2019-06-27T05:18:00.977Z,25.04
2019-06-27T05:18:41.448Z,25.26
2019-06-27T05:19:21.979Z,25.34
2019-06-27T05:20:03.307Z,25.44
2019-06-27T05:20:43.385Z,25.42
2019-06-27T05:21:24.881Z,25.45
2019-06-27T05:22:05.355Z,25.38
2019-06-27T05:22:45.849Z,25.41
2019-06-27T05:23:27.941Z,25.22
2019-06-27T05:24:08.581Z,25.38
2019-06-27T05:24:49.037Z,25.39
2019-06-27T05:25:29.905Z,25.38
2019-06-27T05:26:10.009Z,25.48
2019-06-27T05:26:50.496Z,25.54
2019-06-27T05:27:30.953Z,25.59
2019-06-27T05:28:11.419Z,25.57
2019-06-27T05:28:51.906Z,25.67
2019-06-27T05:29:32.505Z,25.74
2019-06-27T05:30:12.947Z,25.86
2019-06-27T05:30:53.451Z,25.67
2019-06-27T05:31:33.903Z,25.75
2019-06-27T05:32:14.345Z,25.83
2019-06-27T05:32:54.842Z,26.03
2019-06-27T05:33:35.692Z,26.13
2019-06-27T05:34:16.173Z,26.27
2019-06-27T05:34:56.647Z,26.34
2019-06-27T05:35:37.158Z,26.44
2019-06-27T05:36:20.094Z,26.61
2019-06-27T05:37:01.360Z,26.68
2019-06-27T05:37:43.469Z,26.93
2019-06-27T05:38:23.989Z,27.01
2019-06-27T05:39:04.489Z,27.16
2019-06-27T05:39:44.997Z,27.3
2019-06-27T05:40:25.470Z,27.52
2019-06-27T05:41:05.967Z,27.59
2019-06-27T05:41:46.655Z,27.76
2019-06-27T05:42:27.141Z,27.83
2019-06-27T05:43:07.613Z,27.9
2019-06-27T05:43:48.149Z,28.01
2019-06-27T05:44:28.550Z,27.96
2019-06-27T05:45:09.056Z,27.96
2019-06-27T05:45:49.493Z,27.98
2019-06-27T05:46:29.979Z,28.09
2019-06-27T05:47:10.583Z,28.05
2019-06-27T05:47:51.078Z,27.93
2019-06-27T05:48:31.572Z,27.81
2019-06-27T05:49:12.121Z,27.48
2019-06-27T05:49:52.762Z,27.4
2019-06-27T05:50:33.303Z,27.52
2019-06-27T05:51:54.974Z,27.43
2019-06-27T05:52:35.730Z,27.5
2019-06-27T05:53:16.089Z,27.59
2019-06-27T05:53:57.614Z,27.71
2019-06-27T05:54:38.384Z,27.63
2019-06-27T05:55:19.279Z,27.83
2019-06-27T05:55:59.660Z,27.88
2019-06-27T05:56:44.517Z,27.93
2019-06-27T05:57:28.400Z,28.11
2019-06-27T05:59:05.543Z,28.18
2019-06-27T05:59:46.660Z,28.06
2019-06-27T06:00:29.694Z,27.91
2019-06-27T06:01:09.434Z,27.5
2019-06-27T06:01:49.939Z,27.28
2019-06-27T06:02:31.191Z,27.31
2019-06-27T06:03:11.726Z,27.11
2019-06-27T06:03:52.421Z,27.09
2019-06-27T06:04:33.295Z,27.01
2019-06-27T06:05:15.086Z,27.05
2019-06-27T06:05:57.243Z,27.01
2019-06-27T06:06:37.758Z,26.9
2019-06-27T06:07:18.188Z,26.64
2019-06-27T06:08:01.266Z,26.66
2019-06-27T06:08:41.730Z,26.61
2019-06-27T06:09:22.316Z,26.59
2019-06-27T06:10:02.850Z,26.6
2019-06-27T06:10:43.474Z,26.64
2019-06-27T06:11:23.938Z,26.65
2019-06-27T06:12:05.223Z,26.71
2019-06-27T06:12:50.122Z,26.9
2019-06-27T06:17:38.982Z,26.75
2019-06-27T06:18:19.395Z,26.73
2019-06-27T06:18:59.873Z,26.9
2019-06-27T06:19:40.599Z,26.94
2019-06-27T06:20:22.172Z,27.12
2019-06-27T06:21:02.730Z,27.28
2019-06-27T06:21:43.224Z,27.28
2019-06-27T06:22:24.547Z,27.25
2019-06-27T06:23:05.032Z,27.33
2019-06-27T06:23:45.541Z,27.24
2019-06-27T06:24:27.692Z,27.35
2019-06-27T06:25:09.785Z,27.42
2019-06-27T06:25:50.385Z,27.43
2019-06-27T06:26:31.135Z,27.42
2019-06-27T06:27:11.847Z,27.5
2019-06-27T06:27:52.424Z,27.69
2019-06-27T06:28:32.898Z,27.63
2019-06-27T06:29:13.426Z,27.68
2019-06-27T06:29:54.624Z,27.87
2019-06-27T06:30:44.167Z,27.87
2019-06-27T06:31:16.860Z,27.84
2019-06-27T06:31:56.971Z,27.88
2019-06-27T06:32:37.672Z,28.06
2019-06-27T06:33:18.155Z,28.23
2019-06-27T06:33:58.644Z,28.18
2019-06-27T06:34:39.127Z,28.23
2019-06-27T06:35:19.589Z,28.23
2019-06-27T06:36:00.262Z,28.25
2019-06-27T06:36:40.849Z,28.18
2019-06-27T06:37:23.384Z,28.09
2019-06-27T06:38:05.500Z,27.99
2019-06-27T06:38:45.183Z,27.98
2019-06-27T06:39:25.985Z,28.01
2019-06-27T06:40:06.718Z,27.91
2019-06-27T06:40:48.198Z,27.9
2019-06-27T06:41:28.766Z,27.74
2019-06-27T06:42:11.436Z,27.84
2019-06-27T06:42:51.240Z,27.83
2019-06-27T06:43:32.864Z,27.81
2019-06-27T06:44:14.338Z,27.69
2019-06-27T06:45:35.883Z,27.31
2019-06-27T06:46:16.458Z,27.31
2019-06-27T06:46:57.371Z,27.28
2019-06-27T06:47:40.343Z,27.2
2019-06-27T06:48:22.201Z,27.28
2019-06-27T06:49:03.293Z,27.18
2019-06-27T06:49:44.092Z,27.15
2019-06-27T06:50:25.473Z,27.15
2019-06-27T06:51:06.554Z,27.16
2019-06-27T06:52:30.184Z,27.31
2019-06-27T06:53:13.139Z,27.28
2019-06-27T06:53:56.397Z,27.42
2019-06-27T06:54:38.486Z,27.38
2019-06-27T06:55:20.378Z,27.42
2019-06-27T06:56:00.945Z,27.43
2019-06-27T06:56:42.367Z,27.28
2019-06-27T06:57:22.889Z,27.4
2019-06-27T06:58:05.029Z,27.52
2019-06-27T06:58:45.673Z,27.59
2019-06-27T06:59:27.399Z,27.53
2019-06-27T07:00:08.618Z,27.58
2019-06-27T07:01:01.294Z,27.74
2019-06-27T07:01:33.465Z,27.61
2019-06-27T07:02:14.205Z,27.68
2019-06-27T07:02:54.988Z,27.87
2019-06-27T07:03:35.967Z,27.86
2019-06-27T07:04:16.906Z,27.93
2019-06-27T07:04:57.763Z,27.88
2019-06-27T07:05:39.513Z,27.96
2019-06-27T07:06:20.918Z,28.01
2019-06-27T07:07:04.723Z,28.03
2019-06-27T07:07:45.529Z,28.03
2019-06-27T07:08:26.191Z,28.03
2019-06-27T07:09:09.155Z,27.99
2019-06-27T07:09:50.104Z,28.15
2019-06-27T07:10:31.309Z,28.14
2019-06-27T07:11:13.017Z,28.25
2019-06-27T07:11:52.899Z,28.32
2019-06-27T07:12:33.561Z,28.28
2019-06-27T07:13:15.425Z,28.46
2019-06-27T07:13:58.531Z,28.51
2019-06-27T07:14:40.358Z,28.38
2019-06-27T07:15:21.220Z,28.23
2019-06-27T07:16:02.814Z,28.15
2019-06-27T07:16:43.578Z,28.23
2019-06-27T07:17:24.888Z,28.25
2019-06-27T07:18:05.857Z,28.27
2019-06-27T07:18:47.285Z,28.28
2019-06-27T07:19:30.404Z,28.18
2019-06-27T07:20:12.245Z,28.25
2019-06-27T07:20:52.861Z,28.3
2019-06-27T07:21:34.846Z,28.23
2019-06-27T07:22:16.466Z,28.43
2019-06-27T07:22:56.730Z,28.39
2019-06-27T07:23:37.521Z,28.42
2019-06-27T07:24:18.995Z,28.48
2019-06-27T07:24:59.327Z,28.48
2019-06-27T07:25:39.723Z,28.57
2019-06-27T07:26:22.348Z,28.42
2019-06-27T07:27:01.384Z,28.48
2019-06-27T07:27:42.260Z,28.45
2019-06-27T07:28:22.914Z,28.62
2019-06-27T07:29:03.550Z,28.5
2019-06-27T07:29:44.983Z,28.46
2019-06-27T07:30:25.384Z,28.57
2019-06-27T07:31:17.057Z,28.61
2019-06-27T07:31:46.697Z,28.35
2019-06-27T07:32:28.205Z,28.3
2019-06-27T07:33:10.383Z,28.38
2019-06-27T07:33:50.854Z,28.38
2019-06-27T07:34:31.958Z,28.43
2019-06-27T07:35:12.701Z,28.42
2019-06-27T07:35:53.578Z,28.48
2019-06-27T07:36:34.092Z,28.58
2019-06-27T07:37:14.852Z,28.7
2019-06-27T07:37:55.531Z,28.72
2019-06-27T07:38:36.143Z,28.77
2019-06-27T07:39:17.004Z,28.87
2019-06-27T07:39:57.932Z,28.83
2019-06-27T07:41:56.657Z,28.95
2019-06-27T07:42:37.517Z,28.95
2019-06-27T07:43:17.730Z,29.02
2019-06-27T07:43:58.471Z,29.12
2019-06-27T07:44:40.235Z,28.87
2019-06-27T07:45:21.017Z,28.89
2019-06-27T07:46:00.919Z,28.97
2019-06-27T07:46:41.615Z,29.12
2019-06-27T07:48:03.992Z,29.2
2019-06-27T07:48:45.064Z,29.27
2019-06-27T07:49:25.299Z,29.35
2019-06-27T07:50:06.471Z,29.39
2019-06-27T07:50:47.011Z,29.51
2019-06-27T07:51:27.629Z,29.64
2019-06-27T07:52:08.666Z,29.67
2019-06-27T07:52:50.385Z,29.84
2019-06-27T07:53:30.894Z,29.76
2019-06-27T07:54:11.622Z,29.84
2019-06-27T07:54:52.421Z,29.84
2019-06-27T07:55:34.972Z,29.84
2019-06-27T07:56:16.459Z,29.88
2019-06-27T07:56:56.964Z,29.95
2019-06-27T07:57:37.798Z,29.99
2019-06-27T07:58:18.143Z,30.19
2019-06-27T07:58:59.080Z,30.18
2019-06-27T07:59:39.841Z,30.25
2019-06-27T08:00:20.454Z,30.3
2019-06-27T08:01:01.092Z,30.42
2019-06-27T08:01:41.863Z,30.57
2019-06-27T08:02:23.464Z,30.51
2019-06-27T08:03:03.436Z,30.66
2019-06-27T08:03:44.260Z,30.56
2019-06-27T08:04:25.054Z,30.54
2019-06-27T08:05:05.628Z,30.61
2019-06-27T08:05:46.503Z,30.61
2019-06-27T08:06:27.046Z,30.57
2019-06-27T08:07:08.359Z,30.56
2019-06-27T08:07:48.881Z,30.68
2019-06-27T08:08:29.867Z,30.73
2019-06-27T08:09:10.687Z,30.63
2019-06-27T08:09:51.431Z,30.6
2019-06-27T08:10:32.933Z,30.54
2019-06-27T08:11:15.247Z,30.53
2019-06-27T08:11:56.311Z,30.46
2019-06-27T08:12:37.419Z,30.37
2019-06-27T08:13:19.557Z,30.26
2019-06-27T08:14:01.679Z,30.36
2019-06-27T08:14:42.938Z,30.22
2019-06-27T08:15:23.865Z,30.32
2019-06-27T08:16:04.742Z,30.25
2019-06-27T08:16:45.611Z,30.37
2019-06-27T08:18:06.803Z,30.48
2019-06-27T08:18:47.411Z,30.53
2019-06-27T08:19:28.312Z,30.57
2019-06-27T08:21:44.483Z,30.59
2019-06-27T08:22:25.025Z,30.64
2019-06-27T08:23:05.467Z,30.64
2019-06-27T08:23:46.900Z,30.68
2019-06-27T08:24:28.057Z,30.83
2019-06-27T08:25:09.393Z,30.85
2019-06-27T08:25:49.889Z,30.76
2019-06-27T08:27:47.616Z,31.03
2019-06-27T08:28:28.773Z,30.98
2019-06-27T08:29:09.278Z,31.1
2019-06-27T08:29:49.996Z,31.03
2019-06-27T08:30:32.280Z,31
2019-06-27T08:31:12.729Z,30.86
2019-06-27T08:31:54.092Z,30.91
2019-06-27T08:32:34.685Z,30.9
2019-06-27T08:33:15.163Z,30.93
2019-06-27T08:33:55.769Z,30.97
2019-06-27T08:34:36.344Z,30.9
2019-06-27T08:35:16.893Z,30.96
2019-06-27T08:35:58.112Z,31.05
2019-06-27T08:36:38.552Z,30.98
2019-06-27T08:37:19.143Z,31.16
2019-06-27T08:38:00.452Z,31.15
2019-06-27T08:38:40.870Z,31.25
2019-06-27T08:39:21.461Z,31.15
2019-06-27T08:40:02.056Z,31.23
2019-06-27T08:40:42.549Z,31.2
2019-06-27T08:42:03.897Z,31.37
2019-06-27T08:42:45.055Z,31.49
2019-06-27T08:43:25.649Z,31.68
2019-06-27T08:44:06.257Z,31.67
2019-06-27T08:44:46.723Z,31.72
2019-06-27T08:45:27.457Z,31.64
2019-06-27T08:46:07.908Z,31.5
2019-06-27T08:46:49.341Z,31.56
2019-06-27T08:47:29.903Z,31.56
2019-06-27T08:48:10.431Z,31.64
2019-06-27T08:48:50.896Z,31.79
2019-06-27T08:49:31.430Z,31.98
2019-06-27T08:50:11.921Z,31.9
2019-06-27T08:50:52.493Z,31.99
2019-06-27T08:51:32.971Z,32.13
2019-06-27T08:52:13.469Z,32.32
2019-06-27T08:52:54.150Z,32.36
2019-06-27T08:54:41.601Z,32.53
2019-06-27T08:55:22.162Z,32.51
2019-06-27T08:56:02.676Z,32.59
2019-06-27T08:56:43.179Z,32.65
2019-06-27T08:57:23.657Z,32.49
2019-06-27T08:58:04.148Z,32.51
2019-06-27T08:58:44.634Z,32.51
2019-06-27T08:59:25.103Z,32.63
2019-06-27T09:00:05.889Z,32.63
2019-06-27T09:00:46.395Z,32.62
2019-06-27T09:01:27.037Z,32.63
2019-06-27T09:02:09.318Z,32.78
2019-06-27T09:02:48.273Z,32.81
2019-06-27T09:03:28.864Z,32.87
2019-06-27T09:04:09.493Z,32.96
2019-06-27T09:04:50.197Z,33.07
2019-06-27T09:05:30.704Z,33.18
2019-06-27T09:06:11.311Z,33.33
2019-06-27T09:06:52.751Z,33.4
2019-06-27T09:07:33.251Z,33.37
2019-06-27T09:08:13.766Z,33.59
2019-06-27T09:08:55.300Z,33.57
2019-06-27T09:09:35.864Z,33.78
2019-06-27T09:10:16.471Z,33.81
2019-06-27T09:10:59.940Z,33.9
2019-06-27T09:11:40.455Z,34.01
2019-06-27T09:12:20.970Z,34
2019-06-27T09:13:02.022Z,33.9
2019-06-27T09:13:42.494Z,33.89
2019-06-27T09:14:22.965Z,33.87
2019-06-27T09:15:03.519Z,33.84
2019-06-27T09:22:02.537Z,33.62
2019-06-27T09:22:43.757Z,33.62
2019-06-27T09:23:24.229Z,33.63
2019-06-27T09:24:05.279Z,33.7
2019-06-27T09:24:45.357Z,33.74
2019-06-27T09:25:26.521Z,33.68
2019-06-27T09:26:07.504Z,33.63
2019-06-27T09:26:48.026Z,33.43
2019-06-27T09:27:29.737Z,33.31
2019-06-27T09:28:53.951Z,33.18
2019-06-27T09:29:37.105Z,33.12
2019-06-27T09:30:16.798Z,33.03
2019-06-27T09:30:58.470Z,33.14
2019-06-27T09:31:38.345Z,33.21
2019-06-27T09:32:25.160Z,33.28
2019-06-27T09:32:59.497Z,33.41
2019-06-27T09:33:40.227Z,33.52
2019-06-27T09:35:03.959Z,33.72
2019-06-27T09:35:44.239Z,33.65
2019-06-27T09:36:25.471Z,33.77
2019-06-27T09:37:09.578Z,33.86
2019-06-27T09:37:48.450Z,33.86
2019-06-27T09:38:29.139Z,33.93
2019-06-27T09:39:09.833Z,33.94
2019-06-27T09:39:50.494Z,33.94
2019-06-27T09:40:31.067Z,33.97
2019-06-27T09:41:12.806Z,33.87
2019-06-27T09:41:55.211Z,33.84
2019-06-27T09:42:35.942Z,33.78
2019-06-27T09:43:19.468Z,33.77
2019-06-27T09:43:59.736Z,33.63
2019-06-27T09:44:42.243Z,33.7
2019-06-27T09:45:21.074Z,33.72
2019-06-27T09:46:02.497Z,33.74
2019-06-27T09:46:44.486Z,33.89
2019-06-27T09:47:25.196Z,33.9
2019-06-27T09:48:06.471Z,34.05
2019-06-27T09:48:46.448Z,34.14
2019-06-27T09:49:29.588Z,34.28
2019-06-27T09:50:09.942Z,34.3
2019-06-27T09:50:50.962Z,34.42
2019-06-27T09:52:48.517Z,34.56
2019-06-27T09:53:29.283Z,34.78
2019-06-27T09:54:10.009Z,34.9
2019-06-27T09:54:50.831Z,35.07
2019-06-27T09:55:31.480Z,35.03
2019-06-27T09:56:12.702Z,35.06
2019-06-27T09:56:53.271Z,35.2
2019-06-27T09:57:35.254Z,35.07